Time;durP1;ratioP1;P1;durP2;ratioP2;P2;SDS_P1;SDS_P2;PMS_P1;PMS_P2;Temp;Humidity;BMP_temperature;BMP_pressure;BME280_temperature;BME280_humidity;BME280_pressure;Samples;Min_cycle;Max_cycle;Signal;HPM_P1;HPM_P2
2022/01/03 00:00:54;;;;;;;;;;;7.80;99.90;;;;;;5068697;28;20360;-74
2022/01/03 00:03:20;;;;;;;;;;;7.80;99.90;;;;;;5036018;28;19928;-74
2022/01/03 00:05:45;;;;;;;;;;;7.80;99.90;;;;;;5035965;28;19921;-75
2022/01/03 00:08:11;;;;;;;;;;;7.80;99.90;;;;;;5068244;28;19921;-74
2022/01/03 00:10:37;;;;;;;;;;;7.90;99.90;;;;;;5035975;28;20014;-74
2022/01/03 00:13:04;;;;;;;;;;;7.80;99.90;;;;;;5068662;28;19921;-74
2022/01/03 00:15:29;;;;;;;;;;;7.80;99.90;;;;;;5035866;28;20008;-75
2022/01/03 00:17:55;;;;;;;;;;;7.80;99.90;;;;;;5035806;28;19976;-75
2022/01/03 00:20:21;;;;;;;;;;;7.90;99.90;;;;;;5035725;28;19971;-74
2022/01/03 00:22:56;;;;;;;;;;;7.80;99.90;;;;;;5035739;28;19927;-74
2022/01/03 00:25:23;;;;;;;;;;;7.70;99.90;;;;;;5035639;28;19921;-75
2022/01/03 00:27:54;;;;;;;;;;;7.80;99.90;;;;;;5035691;28;19921;-75
2022/01/03 00:30:21;;;;;;;;;;;7.90;99.90;;;;;;5035326;28;19948;-74
2022/01/03 00:32:47;;;;;;;;;;;7.80;99.90;;;;;;5035500;28;19948;-75
2022/01/03 00:35:17;;;;;;;;;;;7.90;99.90;;;;;;5035403;28;19921;-74
2022/01/03 00:37:44;;;;;;;;;;;6.70;99.90;;;;;;5034400;28;19928;-74
2022/01/03 00:40:10;;;;;;;;;;;8.20;99.90;;;;;;5035503;28;19928;-74
2022/01/03 00:42:35;;;;;;;;;;;8.10;99.90;;;;;;5035528;28;19921;-74
2022/01/03 00:45:02;;;;;;;;;;;9.30;99.90;;;;;;5035364;28;20368;-74
2022/01/03 00:47:33;;;;;;;;;;;8.20;99.90;;;;;;5035255;28;19921;-74
2022/01/03 00:50:04;;;;;;;;;;;8.30;99.90;;;;;;5035047;28;19928;-76
2022/01/03 00:52:29;;;;;;;;;;;8.30;99.90;;;;;;5033111;28;19927;-74
2022/01/03 00:54:55;;;;;;;;;;;8.30;99.90;;;;;;5035290;28;20359;-74
2022/01/03 00:57:27;;;;;;;;;;;8.40;99.90;;;;;;5033797;28;19929;-74
2022/01/03 01:00:08;;;;;;;;;;;8.40;99.90;;;;;;5035040;28;20331;-75
2022/01/03 01:02:34;;;;;;;;;;;8.50;99.90;;;;;;5034672;28;20015;-74
2022/01/03 01:05:01;;;;;;;;;;;8.50;99.90;;;;;;5034704;28;20283;-74
2022/01/03 01:07:29;;;;;;;;;;;8.60;99.90;;;;;;5034979;28;19921;-74
2022/01/03 01:09:55;;;;;;;;;;;8.60;99.90;;;;;;5033669;28;20371;-75
2022/01/03 01:12:21;;;;;;;;;;;8.70;99.90;;;;;;5034708;28;19968;-74
2022/01/03 01:14:50;;;;;;;;;;;8.80;99.90;;;;;;5034687;28;20268;-74
2022/01/03 01:17:15;;;;;;;;;;;8.80;99.90;;;;;;5034686;28;19927;-75
2022/01/03 01:19:41;;;;;;;;;;;8.90;99.90;;;;;;5034459;28;19921;-74
2022/01/03 01:22:07;;;;;;;;;;;8.90;99.90;;;;;;5034821;28;19928;-74
2022/01/03 01:24:45;;;;;;;;;;;9.10;99.90;;;;;;5034601;28;20283;-74
2022/01/03 01:29:54;;;;;;;;;;;9.00;99.90;;;;;;5034236;28;20288;-74
2022/01/03 01:32:20;;;;;;;;;;;9.00;99.90;;;;;;5034307;28;19924;-74
2022/01/03 01:34:46;;;;;;;;;;;9.10;99.90;;;;;;5034596;28;19921;-74
2022/01/03 01:37:16;;;;;;;;;;;9.20;99.90;;;;;;5034409;28;19928;-74
2022/01/03 01:39:42;;;;;;;;;;;9.50;99.90;;;;;;5034337;28;20003;-75
2022/01/03 01:42:11;;;;;;;;;;;7.60;99.90;;;;;;5034165;28;19928;-74
2022/01/03 01:44:38;;;;;;;;;;;9.10;99.90;;;;;;5034168;28;20011;-74
2022/01/03 01:47:05;;;;;;;;;;;9.20;99.90;;;;;;5034015;28;19944;-74
2022/01/03 01:49:36;;;;;;;;;;;9.30;99.90;;;;;;5033209;28;20379;-74
2022/01/03 01:52:02;;;;;;;;;;;9.20;99.90;;;;;;5034114;28;19921;-75
2022/01/03 01:54:31;;;;;;;;;;;9.20;99.90;;;;;;5032656;28;19967;-74
2022/01/03 01:57:05;;;;;;;;;;;9.20;99.90;;;;;;5033800;28;20450;-74
2022/01/03 01:59:39;;;;;;;;;;;9.20;99.90;;;;;;5033861;28;19924;-74
2022/01/03 02:02:07;;;;;;;;;;;9.20;99.90;;;;;;5032784;28;20387;-74
2022/01/03 02:04:48;;;;;;;;;;;9.20;99.90;;;;;;5032903;28;20380;-74
2022/01/03 02:07:19;;;;;;;;;;;9.20;99.90;;;;;;5066286;28;19925;-74
2022/01/03 02:10:05;;;;;;;;;;;9.20;99.90;;;;;;5033702;28;19928;-74
2022/01/03 02:12:35;;;;;;;;;;;9.30;99.90;;;;;;5033406;28;20276;-74
2022/01/03 02:15:01;;;;;;;;;;;9.20;99.90;;;;;;5033864;28;20287;-75
2022/01/03 02:17:26;;;;;;;;;;;9.30;99.90;;;;;;5033831;28;20008;-74
2022/01/03 02:20:05;;;;;;;;;;;9.20;99.90;;;;;;5033685;28;19925;-74
2022/01/03 02:22:31;;;;;;;;;;;9.30;99.90;;;;;;5033370;28;19925;-74
2022/01/03 02:24:56;;;;;;;;;;;9.80;99.90;;;;;;5066340;28;19948;-74
2022/01/03 02:27:22;;;;;;;;;;;9.20;99.90;;;;;;5032484;28;20354;-74
2022/01/03 02:29:47;;;;;;;;;;;10.60;99.90;;;;;;5033595;28;19928;-74
2022/01/03 02:32:13;;;;;;;;;;;9.40;99.90;;;;;;5033740;28;19978;-74
2022/01/03 02:34:40;;;;;;;;;;;9.20;99.90;;;;;;5033596;28;20384;-74
2022/01/03 02:37:06;;;;;;;;;;;9.20;99.90;;;;;;5033548;28;19928;-74
2022/01/03 02:39:32;;;;;;;;;;;9.30;99.90;;;;;;5032378;28;20361;-74
2022/01/03 02:41:58;;;;;;;;;;;9.30;99.90;;;;;;5033634;28;19979;-75
2022/01/03 02:44:23;;;;;;;;;;;9.70;99.90;;;;;;5033559;28;19921;-74
2022/01/03 02:46:49;;;;;;;;;;;9.30;99.90;;;;;;5033575;28;19996;-75
2022/01/03 02:49:15;;;;;;;;;;;9.30;99.90;;;;;;5033384;28;19925;-74
2022/01/03 02:51:43;;;;;;;;;;;9.50;99.90;;;;;;5033327;28;19968;-73
2022/01/03 02:54:08;;;;;;;;;;;9.20;99.90;;;;;;5032191;28;19968;-74
2022/01/03 02:56:34;;;;;;;;;;;8.20;99.90;;;;;;5033366;28;19928;-74
2022/01/03 02:59:00;;;;;;;;;;;9.30;99.90;;;;;;5033393;28;19982;-73
2022/01/03 03:01:25;;;;;;;;;;;9.30;99.90;;;;;;5032320;28;19921;-74
2022/01/03 03:03:51;;;;;;;;;;;9.40;99.90;;;;;;5033343;28;20392;-74
2022/01/03 03:06:16;;;;;;;;;;;9.40;99.90;;;;;;5033244;28;19928;-74
2022/01/03 03:08:42;;;;;;;;;;;9.40;99.90;;;;;;5033281;28;19921;-74
2022/01/03 03:11:08;;;;;;;;;;;9.30;99.90;;;;;;5032986;28;19925;-74
2022/01/03 03:13:33;;;;;;;;;;;9.40;99.90;;;;;;5033396;28;19921;-74
2022/01/03 03:15:59;;;;;;;;;;;10.20;99.90;;;;;;5034981;28;19921;-74
2022/01/03 03:18:25;;;;;;;;;;;9.40;99.90;;;;;;5035986;28;19921;-74
2022/01/03 03:20:54;;;;;;;;;;;9.30;99.90;;;;;;5036879;28;19929;-74
2022/01/03 03:23:20;;;;;;;;;;;9.30;99.90;;;;;;5036816;28;19921;-73
2022/01/03 03:25:46;;;;;;;;;;;9.30;99.90;;;;;;5036631;28;19925;-74
2022/01/03 03:28:13;;;;;;;;;;;9.30;99.90;;;;;;5036914;28;19921;-74
2022/01/03 03:30:40;;;;;;;;;;;9.30;99.90;;;;;;5036736;28;20279;-74
2022/01/03 03:33:13;;;;;;;;;;;10.20;99.90;;;;;;5036712;28;19921;-74
2022/01/03 03:35:39;;;;;;;;;;;9.30;99.90;;;;;;5036589;28;19921;-74
2022/01/03 03:38:05;;;;;;;;;;;9.00;99.90;;;;;;5036412;28;20384;-74
2022/01/03 03:40:31;;;;;;;;;;;9.30;99.90;;;;;;5036306;28;19932;-74
2022/01/03 03:42:56;;;;;;;;;;;10.20;99.90;;;;;;5036627;28;19921;-75
2022/01/03 03:45:22;;;;;;;;;;;9.30;99.90;;;;;;5036490;28;19921;-74
2022/01/03 03:47:47;;;;;;;;;;;9.30;99.90;;;;;;5036459;28;19947;-75
2022/01/03 03:50:13;;;;;;;;;;;9.60;99.90;;;;;;5036114;28;19925;-74
2022/01/03 03:52:39;;;;;;;;;;;9.30;99.90;;;;;;5036039;28;20003;-73
2022/01/03 03:55:05;;;;;;;;;;;9.40;99.90;;;;;;5035846;28;19979;-74
2022/01/03 03:57:31;;;;;;;;;;;9.30;99.90;;;;;;5035892;28;20008;-74
2022/01/03 03:59:56;;;;;;;;;;;9.30;99.90;;;;;;5035101;28;20003;-74
2022/01/03 04:02:22;;;;;;;;;;;10.40;99.90;;;;;;5036206;28;19921;-74
2022/01/03 04:04:48;;;;;;;;;;;9.60;99.90;;;;;;5036044;28;19960;-74
2022/01/03 04:07:13;;;;;;;;;;;9.20;99.90;;;;;;5037606;28;19924;-74
2022/01/03 04:09:39;;;;;;;;;;;9.20;99.90;;;;;;5042237;28;19921;-74
2022/01/03 04:12:05;;;;;;;;;;;9.20;99.90;;;;;;5034676;28;19925;-74
2022/01/03 04:14:31;;;;;;;;;;;9.20;99.90;;;;;;5041281;28;19929;-75
2022/01/03 04:16:56;;;;;;;;;;;9.50;99.90;;;;;;5036489;28;20269;-74
2022/01/03 04:19:22;;;;;;;;;;;9.30;99.90;;;;;;5035828;28;19925;-75
2022/01/03 04:21:47;;;;;;;;;;;9.20;99.90;;;;;;5035774;28;20399;-75
2022/01/03 04:24:13;;;;;;;;;;;10.50;99.90;;;;;;5035708;28;19978;-75
2022/01/03 04:26:39;;;;;;;;;;;9.10;99.90;;;;;;5034779;28;20380;-74
2022/01/03 04:29:05;;;;;;;;;;;9.10;99.90;;;;;;5052142;28;19921;-74
2022/01/03 04:31:31;;;;;;;;;;;9.10;99.90;;;;;;5054079;28;19947;-74
2022/01/03 04:33:57;;;;;;;;;;;9.10;99.90;;;;;;5055588;28;19971;-75
2022/01/03 04:36:23;;;;;;;;;;;10.10;99.90;;;;;;5055499;28;19967;-74
2022/01/03 04:38:49;;;;;;;;;;;9.10;99.90;;;;;;5047108;28;19975;-75
2022/01/03 04:41:15;;;;;;;;;;;9.40;99.90;;;;;;5035197;28;20372;-74
2022/01/03 04:43:41;;;;;;;;;;;9.10;99.90;;;;;;5035467;28;20012;-74
2022/01/03 04:46:08;;;;;;;;;;;9.10;99.90;;;;;;5035413;28;19928;-75
2022/01/03 04:48:34;;;;;;;;;;;7.60;99.90;;;;;;5036060;28;20059;-74
2022/01/03 04:51:00;;;;;;;;;;;10.30;99.90;;;;;;5035063;28;19921;-75
2022/01/03 04:53:27;;;;;;;;;;;9.10;99.90;;;;;;5034903;28;19928;-74
2022/01/03 04:55:52;;;;;;;;;;;9.10;99.90;;;;;;5034924;28;19928;-74
2022/01/03 04:58:18;;;;;;;;;;;9.10;99.90;;;;;;5034974;28;19928;-74
2022/01/03 05:00:44;;;;;;;;;;;9.10;99.90;;;;;;5035737;28;19921;-75
2022/01/03 05:03:09;;;;;;;;;;;9.20;99.90;;;;;;5034269;28;19921;-74
2022/01/03 05:05:35;;;;;;;;;;;9.10;99.90;;;;;;5034737;28;19935;-74
2022/01/03 05:08:00;;;;;;;;;;;9.10;99.90;;;;;;5054526;28;19924;-74
2022/01/03 05:10:26;;;;;;;;;;;9.10;99.90;;;;;;5043106;28;19928;-75
2022/01/03 05:12:52;;;;;;;;;;;9.10;99.90;;;;;;5037868;28;19928;-75
2022/01/03 05:15:17;;;;;;;;;;;9.20;99.90;;;;;;5033830;28;19947;-74
2022/01/03 05:17:43;;;;;;;;;;;9.70;99.90;;;;;;5032751;28;19921;-75
2022/01/03 05:20:08;;;;;;;;;;;9.20;99.90;;;;;;5033926;28;19928;-74
2022/01/03 05:22:34;;;;;;;;;;;9.20;99.90;;;;;;5049186;28;19921;-74
2022/01/03 05:25:00;;;;;;;;;;;9.20;99.90;;;;;;5034261;28;19921;-74
2022/01/03 05:27:25;;;;;;;;;;;9.20;99.90;;;;;;5034306;28;19921;-74
2022/01/03 05:29:51;;;;;;;;;;;9.20;99.90;;;;;;5034889;28;19927;-75
2022/01/03 05:32:16;;;;;;;;;;;9.30;99.90;;;;;;5034976;28;20288;-74
2022/01/03 05:34:42;;;;;;;;;;;10.30;99.90;;;;;;5034474;28;20013;-75
2022/01/03 05:37:08;;;;;;;;;;;9.40;99.90;;;;;;5033069;28;20376;-75
2022/01/03 05:39:33;;;;;;;;;;;9.50;99.90;;;;;;5042833;28;19928;-74
2022/01/03 05:41:59;;;;;;;;;;;8.20;99.90;;;;;;5051162;28;20352;-74
2022/01/03 05:44:25;;;;;;;;;;;9.30;99.90;;;;;;5054115;28;19920;-75
2022/01/03 05:46:50;;;;;;;;;;;9.30;99.90;;;;;;5054214;28;19975;-75
2022/01/03 05:49:16;;;;;;;;;;;9.30;99.90;;;;;;5052941;28;19921;-74
2022/01/03 05:51:42;;;;;;;;;;;9.30;99.90;;;;;;5051991;28;19988;-74
2022/01/03 05:54:07;;;;;;;;;;;9.30;99.90;;;;;;5033837;28;20440;-74
2022/01/03 05:56:33;;;;;;;;;;;9.00;99.90;;;;;;5033833;28;20280;-74
2022/01/03 05:58:58;;;;;;;;;;;9.30;99.90;;;;;;5033864;28;20019;-74
2022/01/03 06:01:25;;;;;;;;;;;9.30;99.90;;;;;;5049286;28;20361;-74
2022/01/03 06:04:01;;;;;;;;;;;9.20;99.90;;;;;;5033652;28;19932;-74
2022/01/03 06:09:18;;;;;;;;;;;9.50;99.90;;;;;;5069265;28;19960;-74
2022/01/03 06:11:43;;;;;;;;;;;9.20;99.90;;;;;;5068572;28;19970;-75
2022/01/03 06:14:09;;;;;;;;;;;9.20;99.90;;;;;;5071493;28;20322;-74
2022/01/03 06:16:34;;;;;;;;;;;9.20;99.90;;;;;;5071526;28;19978;-74
2022/01/03 06:19:00;;;;;;;;;;;9.20;99.90;;;;;;5068479;28;19945;-75
2022/01/03 06:21:25;;;;;;;;;;;9.20;99.90;;;;;;5071385;28;20398;-74
2022/01/03 06:23:51;;;;;;;;;;;9.20;99.90;;;;;;5071480;28;19925;-74
2022/01/03 06:26:16;;;;;;;;;;;9.20;99.90;;;;;;5053617;28;19931;-75
2022/01/03 06:28:42;;;;;;;;;;;9.20;99.90;;;;;;5070277;28;19928;-76
2022/01/03 06:31:07;;;;;;;;;;;9.20;99.90;;;;;;5071189;28;20077;-75
2022/01/03 06:33:33;;;;;;;;;;;9.20;99.90;;;;;;5071249;28;19943;-74
2022/01/03 06:35:59;;;;;;;;;;;9.10;99.90;;;;;;5054525;28;19921;-75
2022/01/03 06:38:24;;;;;;;;;;;9.20;99.90;;;;;;5070195;28;19920;-74
2022/01/03 06:40:50;;;;;;;;;;;9.20;99.90;;;;;;5071079;28;20419;-75
2022/01/03 06:43:15;;;;;;;;;;;9.20;99.90;;;;;;5071285;28;19924;-74
2022/01/03 06:45:41;;;;;;;;;;;9.20;99.90;;;;;;5051787;28;19930;-73
2022/01/03 06:48:06;;;;;;;;;;;9.10;99.90;;;;;;5053451;28;20011;-75
2022/01/03 06:50:34;;;;;;;;;;;9.20;99.90;;;;;;5036170;28;19968;-75
2022/01/03 06:52:59;;;;;;;;;;;9.20;99.90;;;;;;5036308;28;19987;-75
2022/01/03 06:55:25;;;;;;;;;;;9.60;99.90;;;;;;5037348;28;20388;-74
2022/01/03 06:57:51;;;;;;;;;;;9.10;99.90;;;;;;5037071;28;19931;-74
2022/01/03 07:00:17;;;;;;;;;;;10.00;99.90;;;;;;5038661;28;19921;-75
2022/01/03 07:02:43;;;;;;;;;;;9.10;99.90;;;;;;5037409;28;20054;-74
2022/01/03 07:05:09;;;;;;;;;;;9.10;99.90;;;;;;5036352;28;20296;-74
2022/01/03 07:07:34;;;;;;;;;;;8.80;99.90;;;;;;5036263;28;20383;-75
2022/01/03 07:10:00;;;;;;;;;;;9.20;99.90;;;;;;5039000;28;20171;-74
2022/01/03 07:12:25;;;;;;;;;;;8.50;99.90;;;;;;5065875;28;19970;-74
2022/01/03 07:20:01;;;;;;;;;;;8.90;99.90;;;;;;5056965;28;19932;-75
2022/01/03 07:22:27;;;;;;;;;;;9.20;99.90;;;;;;5048867;28;19921;-75
2022/01/03 07:24:53;;;;;;;;;;;9.20;99.90;;;;;;5055613;28;19928;-75
2022/01/03 07:27:19;;;;;;;;;;;9.20;99.90;;;;;;5055419;28;19921;-75
2022/01/03 07:29:46;;;;;;;;;;;9.20;99.90;;;;;;5056602;28;19928;-75
2022/01/03 07:32:12;;;;;;;;;;;9.20;99.90;;;;;;5051514;28;19921;-74
2022/01/03 07:34:38;;;;;;;;;;;9.20;99.90;;;;;;5052785;28;19963;-74
2022/01/03 07:37:03;;;;;;;;;;;9.20;99.90;;;;;;5052674;28;19920;-75
2022/01/03 07:39:30;;;;;;;;;;;9.20;99.90;;;;;;5046636;28;19928;-74
2022/01/03 07:41:57;;;;;;;;;;;10.00;99.90;;;;;;5037151;28;19928;-75
2022/01/03 07:44:23;;;;;;;;;;;9.30;99.90;;;;;;5035918;28;19921;-74
2022/01/03 07:46:49;;;;;;;;;;;9.30;99.90;;;;;;5035500;28;19971;-74
2022/01/03 07:49:15;;;;;;;;;;;9.30;99.90;;;;;;5039718;28;19921;-75
2022/01/03 07:51:40;;;;;;;;;;;9.30;99.90;;;;;;5036276;28;20011;-74
2022/01/03 07:54:06;;;;;;;;;;;9.30;99.90;;;;;;5045114;28;19921;-74
2022/01/03 07:56:32;;;;;;;;;;;9.30;99.90;;;;;;5038486;28;19925;-74
2022/01/03 07:58:58;;;;;;;;;;;9.30;99.90;;;;;;5036043;28;20394;-75
2022/01/03 08:01:23;;;;;;;;;;;9.60;99.90;;;;;;5037980;28;19920;-74
2022/01/03 08:03:49;;;;;;;;;;;9.60;99.90;;;;;;5040946;28;19927;-75
2022/01/03 08:06:14;;;;;;;;;;;10.60;99.90;;;;;;5042752;28;19948;-74
2022/01/03 08:08:40;;;;;;;;;;;9.30;99.90;;;;;;5036327;28;19928;-74
2022/01/03 08:11:24;;;;;;;;;;;9.70;99.90;;;;;;5036166;28;19925;-74
2022/01/03 08:13:49;;;;;;;;;;;9.30;99.90;;;;;;5041148;28;19960;-74
2022/01/03 08:16:15;;;;;;;;;;;9.30;99.90;;;;;;5054429;28;19970;-75
2022/01/03 08:18:41;;;;;;;;;;;9.50;99.90;;;;;;5055806;28;19971;-74
2022/01/03 08:21:06;;;;;;;;;;;10.20;99.90;;;;;;5088343;28;19928;-74
2022/01/03 08:23:32;;;;;;;;;;;9.30;99.90;;;;;;5049553;28;19921;-74
2022/01/03 08:25:58;;;;;;;;;;;9.20;99.90;;;;;;5036224;28;19921;-74
2022/01/03 08:28:23;;;;;;;;;;;9.30;99.90;;;;;;5054121;28;20386;-74
2022/01/03 08:30:49;;;;;;;;;;;9.30;99.90;;;;;;5055370;28;19983;-75
2022/01/03 08:33:14;;;;;;;;;;;10.50;99.90;;;;;;5055325;28;19920;-74
2022/01/03 08:35:40;;;;;;;;;;;9.20;99.90;;;;;;5044923;28;19928;-74
2022/01/03 08:38:05;;;;;;;;;;;9.20;99.90;;;;;;5036792;28;19927;-73
2022/01/03 08:40:31;;;;;;;;;;;9.60;99.90;;;;;;5041330;28;19951;-74
2022/01/03 08:42:57;;;;;;;;;;;9.20;99.90;;;;;;5040645;28;20011;-74
2022/01/03 08:45:23;;;;;;;;;;;9.20;99.90;;;;;;5056384;28;19928;-74
2022/01/03 08:47:49;;;;;;;;;;;9.50;99.90;;;;;;5035222;28;19924;-75
2022/01/03 08:50:18;;;;;;;;;;;9.30;99.90;;;;;;5033825;28;20007;-74
2022/01/03 08:52:46;;;;;;;;;;;10.00;99.90;;;;;;5035141;28;19928;-74
2022/01/03 08:55:12;;;;;;;;;;;9.30;99.90;;;;;;5033498;28;20368;-74
2022/01/03 08:57:38;;;;;;;;;;;9.30;99.90;;;;;;5038431;28;19927;-74
2022/01/03 09:00:04;;;;;;;;;;;9.30;99.90;;;;;;5054000;28;19928;-74
2022/01/03 09:02:30;;;;;;;;;;;9.30;99.90;;;;;;5054920;28;19960;-74
2022/01/03 09:04:55;;;;;;;;;;;9.40;99.90;;;;;;5053967;28;20358;-74
2022/01/03 09:07:21;;;;;;;;;;;9.70;99.90;;;;;;5051791;28;19924;-74
2022/01/03 09:09:47;;;;;;;;;;;9.50;99.90;;;;;;5050609;28;20016;-76
2022/01/03 09:12:13;;;;;;;;;;;9.50;99.90;;;;;;5040253;28;19928;-75
2022/01/03 09:14:38;;;;;;;;;;;9.50;99.90;;;;;;5034376;28;19975;-75
2022/01/03 09:17:04;;;;;;;;;;;9.50;99.90;;;;;;5033829;28;19968;-76
2022/01/03 09:19:30;;;;;;;;;;;9.20;99.90;;;;;;5034054;28;19992;-76
2022/01/03 09:22:15;;;;;;;;;;;9.50;99.90;;;;;;5034353;28;19929;-77
2022/01/03 09:30:10;;;;;;;;;;;9.60;99.90;;;;;;5033186;28;20007;-75
2022/01/03 09:32:36;;;;;;;;;;;9.70;99.90;;;;;;5035263;28;20289;-75
2022/01/03 09:35:02;;;;;;;;;;;9.60;99.90;;;;;;5034301;28;20023;-75
2022/01/03 09:37:28;;;;;;;;;;;9.70;99.90;;;;;;5033165;28;19946;-75
2022/01/03 09:39:55;;;;;;;;;;;9.70;99.90;;;;;;5036326;28;19975;-77
2022/01/03 09:42:23;;;;;;;;;;;9.70;99.90;;;;;;5034086;28;20302;-75
2022/01/03 09:44:49;;;;;;;;;;;9.60;99.90;;;;;;5032571;28;19943;-76
2022/01/03 09:47:16;;;;;;;;;;;9.60;99.90;;;;;;5035508;28;19921;-76
2022/01/03 09:49:41;;;;;;;;;;;9.70;99.90;;;;;;5034074;28;19948;-76
2022/01/03 09:52:07;;;;;;;;;;;9.70;99.90;;;;;;5033867;28;19921;-76
2022/01/03 09:54:35;;;;;;;;;;;10.90;99.90;;;;;;5034571;28;19921;-75
2022/01/03 09:57:01;;;;;;;;;;;9.70;99.90;;;;;;5032647;28;19920;-75
2022/01/03 09:59:28;;;;;;;;;;;9.70;99.90;;;;;;5033625;28;19928;-71
2022/01/03 10:01:56;;;;;;;;;;;11.00;99.90;;;;;;5050616;28;19991;-75
2022/01/03 10:04:22;;;;;;;;;;;9.80;99.90;;;;;;5045958;28;19925;-75
2022/01/03 10:06:47;;;;;;;;;;;9.80;99.90;;;;;;5033750;28;19964;-76
2022/01/03 10:09:13;;;;;;;;;;;8.90;99.90;;;;;;5033977;28;20399;-75
2022/01/03 10:11:57;;;;;;;;;;;9.80;99.90;;;;;;5032894;28;19921;-74
2022/01/03 10:14:27;;;;;;;;;;;9.80;99.90;;;;;;5035679;28;19979;-74
2022/01/03 10:16:59;;;;;;;;;;;9.80;99.90;;;;;;5032114;28;20372;-74
2022/01/03 10:19:28;;;;;;;;;;;9.80;99.90;;;;;;5033845;28;19921;-74
2022/01/03 10:21:55;;;;;;;;;;;9.80;99.90;;;;;;5033456;28;20403;-74
2022/01/03 10:24:36;;;;;;;;;;;9.80;99.90;;;;;;5043254;28;19925;-74
2022/01/03 10:27:03;;;;;;;;;;;9.80;99.90;;;;;;5035094;28;19925;-74
2022/01/03 10:29:31;;;;;;;;;;;9.80;99.90;;;;;;5033394;28;19921;-74
2022/01/03 10:32:00;;;;;;;;;;;9.90;99.90;;;;;;5032978;28;20378;-75
2022/01/03 10:34:27;;;;;;;;;;;9.90;99.90;;;;;;5033534;28;19925;-74
2022/01/03 10:36:55;;;;;;;;;;;9.90;99.90;;;;;;5033910;28;20383;-75
2022/01/03 10:39:24;;;;;;;;;;;9.90;99.90;;;;;;5033378;28;19925;-74
2022/01/03 10:42:10;;;;;;;;;;;9.90;99.90;;;;;;5036302;28;19925;-74
2022/01/03 10:44:41;;;;;;;;;;;9.90;99.90;;;;;;5041544;28;19943;-74
2022/01/03 10:47:09;;;;;;;;;;;9.90;99.90;;;;;;5052396;28;19920;-73
2022/01/03 10:49:37;;;;;;;;;;;9.90;99.90;;;;;;5052990;28;19920;-74
2022/01/03 10:52:17;;;;;;;;;;;9.90;99.90;;;;;;5053105;28;19920;-74
2022/01/03 10:54:45;;;;;;;;;;;9.90;99.90;;;;;;5035392;28;19921;-75
2022/01/03 10:57:14;;;;;;;;;;;9.90;99.90;;;;;;5032962;28;19932;-74
2022/01/03 10:59:41;;;;;;;;;;;9.90;99.90;;;;;;5033357;28;19928;-74
2022/01/03 11:02:08;;;;;;;;;;;9.90;99.90;;;;;;5031629;28;20280;-75
2022/01/03 11:04:47;;;;;;;;;;;9.90;99.90;;;;;;5036507;28;20007;-74
2022/01/03 11:13:07;;;;;;;;;;;9.90;99.90;;;;;;5048288;28;19983;-75
2022/01/03 11:15:34;;;;;;;;;;;9.90;99.90;;;;;;5063875;28;19921;-74
2022/01/03 11:18:31;;;;;;;;;;;9.80;99.90;;;;;;5036457;28;20603;-74
2022/01/03 11:21:02;;;;;;;;;;;9.80;99.90;;;;;;5038576;28;19921;-75
2022/01/03 11:23:31;;;;;;;;;;;9.90;99.90;;;;;;5050718;28;20016;-74
2022/01/03 11:26:03;;;;;;;;;;;9.90;99.90;;;;;;5017475;28;19964;-74
2022/01/03 11:28:30;;;;;;;;;;;9.90;99.90;;;;;;5050512;28;19920;-74
2022/01/03 11:30:59;;;;;;;;;;;9.90;99.90;;;;;;5050381;28;19924;-75
2022/01/03 11:33:26;;;;;;;;;;;10.00;99.90;;;;;;5050806;28;19921;-74
2022/01/03 11:35:53;;;;;;;;;;;10.00;99.90;;;;;;5050621;28;19928;-74
2022/01/03 11:38:21;;;;;;;;;;;10.00;99.90;;;;;;5037567;28;19928;-74
2022/01/03 11:40:48;;;;;;;;;;;10.00;99.90;;;;;;5053901;28;19920;-76
2022/01/03 11:43:15;;;;;;;;;;;10.00;99.90;;;;;;5053641;28;19925;-74
2022/01/03 11:45:42;;;;;;;;;;;10.00;99.90;;;;;;5037457;28;20355;-74
2022/01/03 11:48:10;;;;;;;;;;;10.00;99.90;;;;;;5054175;28;19990;-74
2022/01/03 11:50:39;;;;;;;;;;;10.00;99.90;;;;;;5053840;28;19925;-75
2022/01/03 11:53:06;;;;;;;;;;;10.00;99.90;;;;;;5053828;28;20010;-74
2022/01/03 11:55:34;;;;;;;;;;;10.00;99.90;;;;;;5036967;28;20346;-74
2022/01/03 11:58:13;;;;;;;;;;;10.00;99.90;;;;;;5055213;28;19927;-74
2022/01/03 12:03:39;;;;;;;;;;;10.10;99.90;;;;;;5056052;28;19974;-75
2022/01/03 12:06:08;;;;;;;;;;;10.10;99.90;;;;;;5055845;28;19943;-75
2022/01/03 12:08:36;;;;;;;;;;;10.10;99.90;;;;;;5055771;28;19970;-75
2022/01/03 12:11:17;;;;;;;;;;;10.10;99.90;;;;;;5055671;28;19920;-75
2022/01/03 12:13:47;;;;;;;;;;;10.10;99.90;;;;;;5055160;28;19920;-75
2022/01/03 12:16:14;;;;;;;;;;;10.10;99.90;;;;;;5055854;28;19921;-75
2022/01/03 12:19:01;;;;;;;;;;;10.10;99.90;;;;;;5055750;28;20016;-75
2022/01/03 12:21:46;;;;;;;;;;;10.10;99.90;;;;;;5055841;28;20281;-75
2022/01/03 12:24:28;;;;;;;;;;;10.10;99.90;;;;;;5055435;28;19920;-73
2022/01/03 12:27:12;;;;;;;;;;;10.10;99.90;;;;;;5055534;28;19928;-74
2022/01/03 12:29:55;;;;;;;;;;;10.10;99.90;;;;;;5055241;28;19927;-74
2022/01/03 12:32:31;;;;;;;;;;;10.10;99.90;;;;;;5055657;28;19925;-74
2022/01/03 12:35:16;;;;;;;;;;;10.10;99.90;;;;;;5055547;28;19928;-74
2022/01/03 12:37:43;;;;;;;;;;;10.10;99.90;;;;;;5055355;28;19944;-74
2022/01/03 12:40:11;;;;;;;;;;;10.10;99.90;;;;;;5053961;28;19920;-73
2022/01/03 12:42:41;;;;;;;;;;;10.20;99.90;;;;;;5054859;28;20368;-74
2022/01/03 12:45:07;;;;;;;;;;;10.30;99.90;;;;;;5055059;28;20384;-74
2022/01/03 12:47:39;;;;;;;;;;;10.20;99.90;;;;;;5053504;28;19999;-74
2022/01/03 12:50:28;;;;;;;;;;;10.20;99.90;;;;;;5054613;28;19974;-74
2022/01/03 12:52:57;;;;;;;;;;;10.20;99.90;;;;;;5054960;28;20413;-74
2022/01/03 12:55:39;;;;;;;;;;;10.20;99.90;;;;;;5054816;28;19935;-74
2022/01/03 12:58:17;;;;;;;;;;;10.20;99.90;;;;;;5053526;28;19921;-74
2022/01/03 13:00:58;;;;;;;;;;;10.20;99.90;;;;;;5054681;28;19955;-74
2022/01/03 13:03:31;;;;;;;;;;;10.20;99.90;;;;;;5054639;28;19920;-74
2022/01/03 13:06:10;;;;;;;;;;;10.20;99.90;;;;;;5054881;28;19928;-74
2022/01/03 13:08:37;;;;;;;;;;;10.20;99.90;;;;;;5054693;28;20429;-74
2022/01/03 13:11:09;;;;;;;;;;;10.20;99.90;;;;;;5054640;28;19924;-74
2022/01/03 13:13:37;;;;;;;;;;;10.20;99.90;;;;;;5054024;28;20013;-74
2022/01/03 13:16:17;;;;;;;;;;;10.20;99.90;;;;;;5054894;28;19942;-74
2022/01/03 13:18:45;;;;;;;;;;;10.20;99.90;;;;;;5054755;28;19921;-74
2022/01/03 13:21:13;;;;;;;;;;;10.20;99.90;;;;;;5053487;28;19927;-74
2022/01/03 13:24:00;;;;;;;;;;;10.20;99.90;;;;;;5053204;28;19921;-74
2022/01/03 13:26:30;;;;;;;;;;;10.20;99.90;;;;;;5054176;28;20023;-74
2022/01/03 13:28:59;;;;;;;;;;;10.20;99.90;;;;;;5054302;28;19921;-74
2022/01/03 13:31:26;;;;;;;;;;;10.30;99.90;;;;;;5054081;28;19928;-74
2022/01/03 13:33:54;;;;;;;;;;;10.20;99.90;;;;;;5054197;28;19921;-76
2022/01/03 13:36:31;;;;;;;;;;;10.30;99.90;;;;;;5054256;28;19921;-75
2022/01/03 13:39:13;;;;;;;;;;;10.20;99.90;;;;;;5052902;28;19921;-75
2022/01/03 13:41:41;;;;;;;;;;;10.30;99.90;;;;;;5054267;28;19921;-75
2022/01/03 13:49:52;;;;;;;;;;;10.30;99.90;;;;;;5052888;28;19921;-75
2022/01/03 13:52:26;;;;;;;;;;;10.20;99.90;;;;;;5052601;28;19921;-75
2022/01/03 13:55:02;;;;;;;;;;;10.20;99.90;;;;;;5055307;28;19966;-77
2022/01/03 13:57:32;;;;;;;;;;;10.20;99.90;;;;;;5053255;28;19920;-76
2022/01/03 14:00:06;;;;;;;;;;;10.20;99.90;;;;;;5053422;28;20368;-74
2022/01/03 14:02:35;;;;;;;;;;;10.10;99.90;;;;;;5053955;28;20291;-76
2022/01/03 14:05:03;;;;;;;;;;;10.10;99.90;;;;;;5052842;28;20415;-75
2022/01/03 14:07:30;;;;;;;;;;;10.10;99.90;;;;;;5053650;28;19927;-75
2022/01/03 14:09:58;;;;;;;;;;;10.10;99.90;;;;;;5053632;28;19920;-76
2022/01/03 14:12:28;;;;;;;;;;;10.10;99.90;;;;;;5053453;28;19966;-76
2022/01/03 14:14:56;;;;;;;;;;;10.10;99.90;;;;;;5053274;28;19925;-76
2022/01/03 14:17:24;;;;;;;;;;;10.10;99.90;;;;;;5053762;28;20375;-76
2022/01/03 14:20:01;;;;;;;;;;;10.10;99.90;;;;;;5053507;28;19920;-76
2022/01/03 14:22:36;;;;;;;;;;;10.10;99.90;;;;;;5053691;28;19921;-75
2022/01/03 14:25:08;;;;;;;;;;;10.10;99.90;;;;;;5053432;28;19967;-76
2022/01/03 14:27:37;;;;;;;;;;;10.10;99.90;;;;;;5052491;28;19975;-75
2022/01/03 14:30:12;;;;;;;;;;;10.00;99.90;;;;;;5053358;28;19921;-76
2022/01/03 14:32:39;;;;;;;;;;;10.00;99.90;;;;;;5053516;28;19928;-75
2022/01/03 14:35:08;;;;;;;;;;;10.00;99.90;;;;;;5053584;28;19921;-75
2022/01/03 14:37:35;;;;;;;;;;;9.90;99.90;;;;;;5053281;28;19928;-75
2022/01/03 14:40:05;;;;;;;;;;;9.90;99.90;;;;;;5052553;28;19925;-76
2022/01/03 14:42:34;;;;;;;;;;;9.90;99.90;;;;;;5086170;28;19966;-76
2022/01/03 14:45:26;;;;;;;;;;;9.80;99.90;;;;;;5052742;28;19921;-76
2022/01/03 14:47:58;;;;;;;;;;;9.70;99.90;;;;;;5083512;28;19998;-76
2022/01/03 14:50:24;;;;;;;;;;;9.60;99.90;;;;;;5053171;28;20309;-75
2022/01/03 14:52:55;;;;;;;;;;;9.70;99.90;;;;;;5053661;28;19921;-77
2022/01/03 14:55:33;;;;;;;;;;;9.60;99.90;;;;;;5053048;28;19974;-76
2022/01/03 14:58:01;;;;;;;;;;;9.70;99.90;;;;;;5052620;28;19921;-76
2022/01/03 15:00:27;;;;;;;;;;;9.60;99.90;;;;;;5052726;28;19920;-76
2022/01/03 15:02:55;;;;;;;;;;;9.60;99.90;;;;;;5052809;28;19920;-76